VXP574 KHVN-KRDU
Flight info
| Callsign | VXP574 |
|---|---|
| Flight time | 1h 25m |
| Altitude | 40000 |
| Route | BEADS EMJAY Q167 ZJAAY TAQLE3 |
| Aircraft | B737/M-SDE2E3FGHIRWXY/LB1 |
Departure
| Time | 2026-05-06 18:28 |
|---|---|
| Airport | Tweed New Haven Airport (KHVN) |
Arrival
| Time | 2026-05-06 19:53 |
|---|---|
| Airport | Raleigh-Durham International Airport (KRDU) |
| Time | Latitude | Longitude | Altitude | Speed | Heading |
|---|---|---|---|---|---|
| 2026-05-06 18:13 | 41.26939 | -72.88959 | 23 ft | 0 kts | 268° |
| 2026-05-06 18:17 | 41.26939 | -72.88949 | 23 ft | 2 kts | 268° |
| 2026-05-06 18:17 | 41.26939 | -72.88929 | 23 ft | 2 kts | 281° |
| 2026-05-06 18:17 | 41.26931 | -72.88912 | 23 ft | 2 kts | 326° |
| 2026-05-06 18:18 | 41.26920 | -72.88906 | 23 ft | 0 kts | 358° |
| 2026-05-06 18:18 | 41.26912 | -72.88907 | 23 ft | 0 kts | 2° |
| 2026-05-06 18:18 | 41.26911 | -72.88907 | 23 ft | 0 kts | 2° |
| 2026-05-06 18:19 | 41.26912 | -72.88907 | 23 ft | 0 kts | 2° |
| 2026-05-06 18:21 | 41.26933 | -72.88905 | 23 ft | 6 kts | 2° |
| 2026-05-06 18:21 | 41.26971 | -72.88871 | 23 ft | 8 kts | 74° |
| 2026-05-06 18:21 | 41.26968 | -72.88774 | 23 ft | 12 kts | 94° |
| 2026-05-06 18:22 | 41.26961 | -72.88669 | 23 ft | 10 kts | 91° |
| 2026-05-06 18:22 | 41.26933 | -72.88591 | 23 ft | 10 kts | 169° |
| 2026-05-06 18:22 | 41.26854 | -72.88596 | 23 ft | 14 kts | 184° |
| 2026-05-06 18:22 | 41.26741 | -72.88602 | 23 ft | 15 kts | 181° |
| 2026-05-06 18:23 | 41.26636 | -72.88606 | 23 ft | 14 kts | 181° |
| 2026-05-06 18:23 | 41.26546 | -72.88593 | 23 ft | 12 kts | 142° |
| 2026-05-06 18:23 | 41.26491 | -72.88512 | 23 ft | 11 kts | 131° |
| 2026-05-06 18:23 | 41.26436 | -72.88460 | 23 ft | 9 kts | 191° |
| 2026-05-06 18:24 | 41.26386 | -72.88501 | 23 ft | 7 kts | 216° |
| 2026-05-06 18:24 | 41.26344 | -72.88541 | 23 ft | 6 kts | 216° |
| 2026-05-06 18:24 | 41.26305 | -72.88580 | 23 ft | 8 kts | 216° |
| 2026-05-06 18:24 | 41.26239 | -72.88615 | 23 ft | 12 kts | 188° |
| 2026-05-06 18:25 | 41.26157 | -72.88634 | 23 ft | 11 kts | 190° |
| 2026-05-06 18:25 | 41.26083 | -72.88652 | 23 ft | 11 kts | 190° |
| 2026-05-06 18:25 | 41.25996 | -72.88673 | 23 ft | 13 kts | 189° |
| 2026-05-06 18:25 | 41.25908 | -72.88692 | 23 ft | 12 kts | 189° |
| 2026-05-06 18:26 | 41.25829 | -72.88708 | 23 ft | 11 kts | 184° |
| 2026-05-06 18:26 | 41.25751 | -72.88715 | 23 ft | 10 kts | 182° |
| 2026-05-06 18:26 | 41.25697 | -72.88718 | 23 ft | 4 kts | 183° |
| 2026-05-06 18:26 | 41.25658 | -72.88721 | 23 ft | 8 kts | 183° |
| 2026-05-06 18:27 | 41.25610 | -72.88776 | 23 ft | 10 kts | 266° |
| 2026-05-06 18:27 | 41.25649 | -72.88824 | 23 ft | 11 kts | 3° |
| 2026-05-06 18:27 | 41.25984 | -72.88801 | 23 ft | 92 kts | 3° |
| 2026-05-06 18:27 | 41.26881 | -72.88741 | 102 ft | 157 kts | 3° |
| 2026-05-06 18:28 | 41.27975 | -72.88648 | 843 ft | 165 kts | 5° |
| 2026-05-06 18:28 | 41.29147 | -72.88494 | 1493 ft | 177 kts | 7° |
| 2026-05-06 18:28 | 41.30450 | -72.88322 | 1919 ft | 201 kts | 6° |
| 2026-05-06 18:28 | 41.31971 | -72.88116 | 2029 ft | 245 kts | 4° |
| 2026-05-06 18:29 | 41.33722 | -72.87858 | 1839 ft | 257 kts | 5° |
| 2026-05-06 18:29 | 41.35479 | -72.87952 | 1965 ft | 250 kts | 339° |
| 2026-05-06 18:29 | 41.36988 | -72.89024 | 2005 ft | 249 kts | 323° |
| 2026-05-06 18:29 | 41.38593 | -72.89922 | 1968 ft | 258 kts | 350° |
| 2026-05-06 18:30 | 41.40396 | -72.89825 | 1997 ft | 258 kts | 4° |
| 2026-05-06 18:30 | 41.42184 | -72.89620 | 2060 ft | 260 kts | 2° |
| 2026-05-06 18:30 | 41.43958 | -72.89441 | 2111 ft | 249 kts | 1° |
| 2026-05-06 18:30 | 41.45710 | -72.89252 | 2607 ft | 260 kts | 2° |
| 2026-05-06 18:31 | 41.47535 | -72.89024 | 3146 ft | 267 kts | 2° |
| 2026-05-06 18:31 | 41.49344 | -72.88416 | 3674 ft | 274 kts | 27° |
| 2026-05-06 18:31 | 41.50698 | -72.86634 | 4219 ft | 277 kts | 65° |
| 2026-05-06 18:31 | 41.51088 | -72.84193 | 4762 ft | 268 kts | 101° |
| 2026-05-06 18:32 | 41.50684 | -72.81814 | 5309 ft | 265 kts | 114° |
| 2026-05-06 18:32 | 41.49970 | -72.79627 | 5838 ft | 254 kts | 137° |
| 2026-05-06 18:32 | 41.48625 | -72.78344 | 6382 ft | 231 kts | 170° |
| 2026-05-06 18:32 | 41.47092 | -72.77797 | 6929 ft | 229 kts | 174° |
| 2026-05-06 18:33 | 41.45549 | -72.77258 | 7470 ft | 230 kts | 174° |
| 2026-05-06 18:33 | 41.43998 | -72.76741 | 7949 ft | 234 kts | 175° |
| 2026-05-06 18:33 | 41.42405 | -72.76224 | 8009 ft | 235 kts | 175° |
| 2026-05-06 18:33 | 41.40826 | -72.75709 | 7991 ft | 231 kts | 175° |
| 2026-05-06 18:34 | 41.39234 | -72.75203 | 8087 ft | 249 kts | 175° |
| 2026-05-06 18:34 | 41.37534 | -72.74654 | 8982 ft | 252 kts | 175° |
| 2026-05-06 18:34 | 41.35886 | -72.74117 | 10163 ft | 245 kts | 175° |
| 2026-05-06 18:34 | 41.34237 | -72.73595 | 11120 ft | 250 kts | 176° |
| 2026-05-06 18:35 | 41.32505 | -72.73051 | 11723 ft | 270 kts | 175° |
| 2026-05-06 18:35 | 41.30604 | -72.72459 | 12233 ft | 293 kts | 177° |
| 2026-05-06 18:35 | 41.28581 | -72.72506 | 13019 ft | 290 kts | 201° |
| 2026-05-06 18:35 | 41.26823 | -72.73663 | 14061 ft | 290 kts | 213° |
| 2026-05-06 18:36 | 41.24997 | -72.74841 | 15038 ft | 300 kts | 206° |
| 2026-05-06 18:36 | 41.23016 | -72.75803 | 16042 ft | 307 kts | 205° |
| 2026-05-06 18:36 | 41.21019 | -72.76755 | 16980 ft | 314 kts | 205° |
| 2026-05-06 18:36 | 41.18953 | -72.77725 | 17919 ft | 320 kts | 205° |
| 2026-05-06 18:37 | 41.16809 | -72.78703 | 18856 ft | 326 kts | 205° |
| 2026-05-06 18:37 | 41.15405 | -72.79340 | 19435 ft | 330 kts | 205° |
| 2026-05-06 18:37 | 41.12489 | -72.80656 | 20573 ft | 338 kts | 205° |
| 2026-05-06 18:37 | 41.10227 | -72.81673 | 21410 ft | 343 kts | 204° |
| 2026-05-06 18:38 | 41.07968 | -72.82687 | 22203 ft | 348 kts | 204° |
| 2026-05-06 18:38 | 41.05658 | -72.83723 | 22988 ft | 353 kts | 204° |
| 2026-05-06 18:38 | 41.03305 | -72.84776 | 23740 ft | 359 kts | 204° |
| 2026-05-06 18:38 | 41.00972 | -72.85819 | 24475 ft | 363 kts | 204° |
| 2026-05-06 18:39 | 40.98559 | -72.86897 | 25196 ft | 367 kts | 205° |
| 2026-05-06 18:39 | 40.96120 | -72.87984 | 25922 ft | 371 kts | 205° |
| 2026-05-06 18:39 | 40.93671 | -72.89076 | 26608 ft | 375 kts | 205° |
| 2026-05-06 18:40 | 40.88696 | -72.91295 | 27684 ft | 389 kts | 205° |
| 2026-05-06 18:40 | 40.86045 | -72.92483 | 27754 ft | 408 kts | 205° |
| 2026-05-06 18:40 | 40.83323 | -72.93696 | 28078 ft | 419 kts | 205° |
| 2026-05-06 18:40 | 40.80553 | -72.94918 | 28788 ft | 420 kts | 205° |
| 2026-05-06 18:41 | 40.77806 | -72.96130 | 29505 ft | 421 kts | 205° |
| 2026-05-06 18:41 | 40.75036 | -72.97355 | 30248 ft | 420 kts | 205° |
| 2026-05-06 18:41 | 40.72269 | -72.98579 | 30990 ft | 419 kts | 206° |
| 2026-05-06 18:41 | 40.69545 | -72.99783 | 31732 ft | 416 kts | 206° |
| 2026-05-06 18:42 | 40.66821 | -73.00984 | 32407 ft | 415 kts | 207° |
| 2026-05-06 18:42 | 40.64049 | -73.02213 | 32857 ft | 419 kts | 207° |
| 2026-05-06 18:42 | 40.61273 | -73.03442 | 33348 ft | 422 kts | 207° |
| 2026-05-06 18:42 | 40.58498 | -73.04666 | 33827 ft | 423 kts | 207° |
| 2026-05-06 18:43 | 40.55735 | -73.05875 | 34559 ft | 419 kts | 208° |
| 2026-05-06 18:43 | 40.52990 | -73.07073 | 35191 ft | 416 kts | 208° |
| 2026-05-06 18:43 | 40.50257 | -73.08276 | 35767 ft | 413 kts | 209° |
| 2026-05-06 18:43 | 40.47548 | -73.09472 | 36255 ft | 413 kts | 209° |
| 2026-05-06 18:44 | 40.44824 | -73.10677 | 36653 ft | 415 kts | 210° |
| 2026-05-06 18:44 | 40.42124 | -73.11864 | 37071 ft | 415 kts | 210° |
| 2026-05-06 18:44 | 40.39380 | -73.13060 | 37498 ft | 415 kts | 210° |
| 2026-05-06 18:44 | 40.36659 | -73.14245 | 37870 ft | 416 kts | 210° |
| 2026-05-06 18:45 | 40.33929 | -73.15437 | 38361 ft | 412 kts | 211° |
| 2026-05-06 18:45 | 40.31234 | -73.16607 | 38922 ft | 407 kts | 211° |
| 2026-05-06 18:45 | 40.28571 | -73.17768 | 39322 ft | 405 kts | 211° |
| 2026-05-06 18:45 | 40.26804 | -73.18544 | 39559 ft | 404 kts | 211° |
| 2026-05-06 18:46 | 40.23231 | -73.20119 | 39883 ft | 406 kts | 211° |
| 2026-05-06 18:46 | 40.17917 | -73.22427 | 39890 ft | 397 kts | 211° |
| 2026-05-06 18:47 | 40.12739 | -73.24710 | 39890 ft | 389 kts | 214° |
| 2026-05-06 18:47 | 40.08067 | -73.27852 | 39889 ft | 372 kts | 227° |
| 2026-05-06 18:48 | 40.04156 | -73.32098 | 39890 ft | 365 kts | 232° |
| 2026-05-06 18:48 | 40.00295 | -73.36339 | 39890 ft | 365 kts | 231° |
| 2026-05-06 18:49 | 39.96433 | -73.40630 | 39890 ft | 366 kts | 232° |
| 2026-05-06 18:49 | 39.92561 | -73.44933 | 39890 ft | 366 kts | 232° |
| 2026-05-06 18:50 | 39.88643 | -73.49298 | 39890 ft | 376 kts | 232° |
| 2026-05-06 18:50 | 39.84624 | -73.53772 | 39890 ft | 389 kts | 232° |
| 2026-05-06 18:51 | 39.80433 | -73.58437 | 39889 ft | 400 kts | 231° |
| 2026-05-06 18:51 | 39.76214 | -73.63120 | 39889 ft | 400 kts | 231° |
| 2026-05-06 18:52 | 39.72030 | -73.67760 | 39890 ft | 398 kts | 231° |
| 2026-05-06 18:52 | 39.67805 | -73.72446 | 39890 ft | 399 kts | 231° |
| 2026-05-06 18:53 | 39.63604 | -73.77094 | 39880 ft | 399 kts | 231° |
| 2026-05-06 18:53 | 39.59392 | -73.81747 | 39881 ft | 399 kts | 231° |
| 2026-05-06 18:54 | 39.55160 | -73.86419 | 39881 ft | 401 kts | 231° |
| 2026-05-06 18:54 | 39.50935 | -73.91071 | 39881 ft | 401 kts | 231° |
| 2026-05-06 18:55 | 39.46683 | -73.95744 | 39891 ft | 401 kts | 231° |
| 2026-05-06 18:55 | 39.42445 | -74.00395 | 39900 ft | 401 kts | 231° |
| 2026-05-06 18:56 | 39.38199 | -74.05043 | 39906 ft | 399 kts | 231° |
| 2026-05-06 18:56 | 39.33970 | -74.09666 | 39908 ft | 400 kts | 231° |
| 2026-05-06 18:57 | 39.29737 | -74.14284 | 39908 ft | 401 kts | 231° |
| 2026-05-06 18:57 | 39.25473 | -74.18928 | 39908 ft | 402 kts | 231° |
| 2026-05-06 18:58 | 39.21189 | -74.23587 | 39908 ft | 402 kts | 231° |
| 2026-05-06 18:58 | 39.16935 | -74.28204 | 39908 ft | 402 kts | 231° |
| 2026-05-06 18:59 | 39.12674 | -74.32823 | 39908 ft | 403 kts | 231° |
| 2026-05-06 18:59 | 39.08364 | -74.37488 | 39908 ft | 404 kts | 231° |
| 2026-05-06 19:00 | 39.04081 | -74.42113 | 39908 ft | 403 kts | 231° |
| 2026-05-06 19:00 | 38.99771 | -74.46761 | 39912 ft | 404 kts | 231° |
| 2026-05-06 19:01 | 38.95450 | -74.51415 | 39917 ft | 406 kts | 231° |
| 2026-05-06 19:01 | 38.91212 | -74.56158 | 39922 ft | 402 kts | 234° |
| 2026-05-06 19:02 | 38.87135 | -74.61013 | 39926 ft | 402 kts | 233° |
| 2026-05-06 19:02 | 38.83010 | -74.65836 | 39927 ft | 403 kts | 233° |
| 2026-05-06 19:03 | 38.78866 | -74.70686 | 39926 ft | 405 kts | 233° |
| 2026-05-06 19:03 | 38.74703 | -74.75531 | 39926 ft | 406 kts | 232° |
| 2026-05-06 19:04 | 38.70320 | -74.80128 | 39926 ft | 407 kts | 230° |
| 2026-05-06 19:04 | 38.65931 | -74.84660 | 39926 ft | 406 kts | 230° |
| 2026-05-06 19:05 | 38.61524 | -74.89243 | 39926 ft | 407 kts | 230° |
| 2026-05-06 19:05 | 38.57161 | -74.93765 | 39926 ft | 407 kts | 230° |
| 2026-05-06 19:06 | 38.52754 | -74.98338 | 39926 ft | 408 kts | 231° |
| 2026-05-06 19:06 | 38.48512 | -75.03039 | 39926 ft | 404 kts | 233° |
| 2026-05-06 19:07 | 38.44158 | -75.07669 | 39926 ft | 411 kts | 228° |
| 2026-05-06 19:07 | 38.39551 | -75.11920 | 39926 ft | 411 kts | 228° |
| 2026-05-06 19:08 | 38.34973 | -75.16270 | 39934 ft | 410 kts | 229° |
| 2026-05-06 19:08 | 38.30407 | -75.20588 | 39932 ft | 410 kts | 229° |
| 2026-05-06 19:09 | 38.25817 | -75.24928 | 39931 ft | 410 kts | 229° |
| 2026-05-06 19:09 | 38.21246 | -75.29248 | 39932 ft | 411 kts | 229° |
| 2026-05-06 19:10 | 38.16660 | -75.33575 | 39938 ft | 411 kts | 229° |
| 2026-05-06 19:10 | 38.12070 | -75.37900 | 39946 ft | 411 kts | 229° |
| 2026-05-06 19:11 | 38.07508 | -75.42190 | 39953 ft | 410 kts | 229° |
| 2026-05-06 19:11 | 38.03112 | -75.46705 | 39954 ft | 400 kts | 235° |
| 2026-05-06 19:12 | 37.99088 | -75.51556 | 39954 ft | 401 kts | 235° |
| 2026-05-06 19:12 | 37.94981 | -75.56350 | 39954 ft | 405 kts | 235° |
| 2026-05-06 19:13 | 37.90823 | -75.61219 | 39954 ft | 405 kts | 235° |
| 2026-05-06 19:13 | 37.86719 | -75.66008 | 39954 ft | 403 kts | 234° |
| 2026-05-06 19:14 | 37.82573 | -75.70844 | 39955 ft | 405 kts | 234° |
| 2026-05-06 19:14 | 37.78435 | -75.75660 | 39959 ft | 405 kts | 234° |
| 2026-05-06 19:15 | 37.74304 | -75.80457 | 39963 ft | 404 kts | 234° |
| 2026-05-06 19:15 | 37.70207 | -75.85205 | 39961 ft | 396 kts | 234° |
| 2026-05-06 19:15 | 37.68181 | -75.87535 | 39835 ft | 386 kts | 235° |
| 2026-05-06 19:16 | 37.66212 | -75.89822 | 38697 ft | 398 kts | 235° |
| 2026-05-06 19:16 | 37.64211 | -75.92153 | 38048 ft | 386 kts | 234° |
| 2026-05-06 19:16 | 37.62262 | -75.94385 | 37531 ft | 373 kts | 234° |
| 2026-05-06 19:16 | 37.60441 | -75.96631 | 36965 ft | 364 kts | 238° |
| 2026-05-06 19:17 | 37.58847 | -75.99052 | 36375 ft | 358 kts | 240° |
| 2026-05-06 19:17 | 37.57303 | -76.01519 | 35775 ft | 357 kts | 239° |
| 2026-05-06 19:17 | 37.55736 | -76.03938 | 35130 ft | 358 kts | 238° |
| 2026-05-06 19:17 | 37.54147 | -76.06373 | 34466 ft | 364 kts | 237° |
| 2026-05-06 19:18 | 37.52565 | -76.08825 | 33787 ft | 366 kts | 237° |
| 2026-05-06 19:18 | 37.50948 | -76.11338 | 33078 ft | 366 kts | 237° |
| 2026-05-06 19:18 | 37.49355 | -76.13805 | 32363 ft | 371 kts | 237° |
| 2026-05-06 19:18 | 37.47711 | -76.16349 | 31613 ft | 380 kts | 237° |
| 2026-05-06 19:19 | 37.46034 | -76.18940 | 30922 ft | 379 kts | 237° |
| 2026-05-06 19:19 | 37.44399 | -76.21455 | 30379 ft | 374 kts | 237° |
| 2026-05-06 19:19 | 37.42762 | -76.23978 | 29814 ft | 370 kts | 237° |
| 2026-05-06 19:19 | 37.41130 | -76.26497 | 29245 ft | 366 kts | 237° |
| 2026-05-06 19:20 | 37.39531 | -76.28965 | 28687 ft | 365 kts | 237° |
| 2026-05-06 19:20 | 37.37934 | -76.31433 | 28125 ft | 370 kts | 237° |
| 2026-05-06 19:20 | 37.36316 | -76.33924 | 27554 ft | 366 kts | 237° |
| 2026-05-06 19:20 | 37.34708 | -76.36394 | 26988 ft | 362 kts | 237° |
| 2026-05-06 19:21 | 37.33135 | -76.38811 | 26431 ft | 359 kts | 237° |
| 2026-05-06 19:21 | 37.31560 | -76.41232 | 25873 ft | 355 kts | 237° |
| 2026-05-06 19:21 | 37.30007 | -76.43618 | 25319 ft | 352 kts | 237° |
| 2026-05-06 19:21 | 37.28462 | -76.45989 | 24768 ft | 348 kts | 237° |
| 2026-05-06 19:22 | 37.26940 | -76.48324 | 24224 ft | 345 kts | 237° |
| 2026-05-06 19:22 | 37.25433 | -76.50643 | 23922 ft | 343 kts | 237° |
| 2026-05-06 19:22 | 37.23944 | -76.52975 | 23944 ft | 346 kts | 237° |
| 2026-05-06 19:22 | 37.22422 | -76.55366 | 23951 ft | 352 kts | 237° |
| 2026-05-06 19:23 | 37.20893 | -76.57752 | 23952 ft | 352 kts | 237° |
| 2026-05-06 19:23 | 37.19344 | -76.60166 | 23939 ft | 352 kts | 237° |
| 2026-05-06 19:23 | 37.17817 | -76.62545 | 23943 ft | 351 kts | 237° |
| 2026-05-06 19:23 | 37.16291 | -76.64922 | 23943 ft | 350 kts | 237° |
| 2026-05-06 19:24 | 37.14753 | -76.67316 | 23945 ft | 350 kts | 236° |
| 2026-05-06 19:24 | 37.13230 | -76.69685 | 23945 ft | 351 kts | 236° |
| 2026-05-06 19:24 | 37.11691 | -76.72077 | 23944 ft | 351 kts | 236° |
| 2026-05-06 19:24 | 37.10150 | -76.74469 | 23946 ft | 351 kts | 236° |
| 2026-05-06 19:25 | 37.08618 | -76.76846 | 23947 ft | 351 kts | 236° |
| 2026-05-06 19:25 | 37.07091 | -76.79215 | 23949 ft | 350 kts | 236° |
| 2026-05-06 19:25 | 37.05559 | -76.81589 | 23952 ft | 350 kts | 236° |
| 2026-05-06 19:25 | 37.04019 | -76.83974 | 23955 ft | 351 kts | 236° |
| 2026-05-06 19:26 | 37.02498 | -76.86328 | 23957 ft | 352 kts | 236° |
| 2026-05-06 19:26 | 37.00945 | -76.88730 | 23782 ft | 355 kts | 236° |
| 2026-05-06 19:26 | 36.99402 | -76.91112 | 23399 ft | 350 kts | 236° |
| 2026-05-06 19:26 | 36.97893 | -76.93439 | 22977 ft | 344 kts | 236° |
| 2026-05-06 19:27 | 36.96402 | -76.95736 | 22953 ft | 340 kts | 236° |
| 2026-05-06 19:27 | 36.94874 | -76.98094 | 22962 ft | 348 kts | 236° |
| 2026-05-06 19:27 | 36.93356 | -77.00430 | 22964 ft | 349 kts | 236° |
| 2026-05-06 19:27 | 36.91808 | -77.02806 | 22967 ft | 349 kts | 236° |
| 2026-05-06 19:28 | 36.90292 | -77.05135 | 22969 ft | 349 kts | 236° |
| 2026-05-06 19:28 | 36.88766 | -77.07477 | 22971 ft | 348 kts | 236° |
| 2026-05-06 19:28 | 36.87223 | -77.09843 | 22974 ft | 347 kts | 236° |
| 2026-05-06 19:28 | 36.85714 | -77.12155 | 22978 ft | 347 kts | 236° |
| 2026-05-06 19:29 | 36.84179 | -77.14507 | 22981 ft | 347 kts | 236° |
| 2026-05-06 19:29 | 36.82666 | -77.16823 | 22985 ft | 347 kts | 236° |
| 2026-05-06 19:29 | 36.81125 | -77.19179 | 22989 ft | 347 kts | 236° |
| 2026-05-06 19:29 | 36.79600 | -77.21511 | 22994 ft | 346 kts | 236° |
| 2026-05-06 19:30 | 36.78070 | -77.23832 | 22996 ft | 346 kts | 235° |
| 2026-05-06 19:30 | 36.76522 | -77.26135 | 22998 ft | 346 kts | 235° |
| 2026-05-06 19:30 | 36.74988 | -77.28410 | 22999 ft | 346 kts | 235° |
| 2026-05-06 19:30 | 36.73442 | -77.30714 | 22999 ft | 346 kts | 235° |
| 2026-05-06 19:31 | 36.71898 | -77.33013 | 22999 ft | 346 kts | 235° |
| 2026-05-06 19:31 | 36.70357 | -77.35305 | 22999 ft | 346 kts | 235° |
| 2026-05-06 19:31 | 36.67270 | -77.39891 | 22999 ft | 346 kts | 235° |
| 2026-05-06 19:32 | 36.65704 | -77.42215 | 22999 ft | 346 kts | 235° |
| 2026-05-06 19:32 | 36.64174 | -77.44484 | 22999 ft | 346 kts | 235° |
| 2026-05-06 19:32 | 36.62610 | -77.46802 | 22999 ft | 346 kts | 235° |
| 2026-05-06 19:32 | 36.61065 | -77.49092 | 22998 ft | 346 kts | 235° |
| 2026-05-06 19:33 | 36.59517 | -77.51383 | 22997 ft | 346 kts | 235° |
| 2026-05-06 19:33 | 36.57961 | -77.53686 | 22977 ft | 346 kts | 235° |
| 2026-05-06 19:33 | 36.56441 | -77.55927 | 22633 ft | 338 kts | 235° |
| 2026-05-06 19:33 | 36.54940 | -77.58142 | 22145 ft | 333 kts | 235° |
| 2026-05-06 19:34 | 36.53455 | -77.60336 | 21624 ft | 330 kts | 235° |
| 2026-05-06 19:34 | 36.51988 | -77.62501 | 21105 ft | 327 kts | 235° |
| 2026-05-06 19:34 | 36.50523 | -77.64660 | 20582 ft | 323 kts | 235° |
| 2026-05-06 19:34 | 36.49086 | -77.66779 | 20071 ft | 326 kts | 235° |
| 2026-05-06 19:35 | 36.47625 | -77.68934 | 19543 ft | 324 kts | 235° |
| 2026-05-06 19:35 | 36.46178 | -77.71059 | 19026 ft | 321 kts | 235° |
| 2026-05-06 19:35 | 36.44745 | -77.73166 | 18511 ft | 318 kts | 235° |
| 2026-05-06 19:35 | 36.43325 | -77.75256 | 18001 ft | 315 kts | 235° |
| 2026-05-06 19:36 | 36.41939 | -77.77292 | 17503 ft | 312 kts | 235° |
| 2026-05-06 19:36 | 36.40536 | -77.79352 | 16993 ft | 309 kts | 235° |
| 2026-05-06 19:36 | 36.39168 | -77.81359 | 16475 ft | 307 kts | 235° |
| 2026-05-06 19:36 | 36.37780 | -77.83395 | 15968 ft | 304 kts | 235° |
| 2026-05-06 19:37 | 36.36428 | -77.85376 | 15480 ft | 301 kts | 235° |
| 2026-05-06 19:37 | 36.35090 | -77.87334 | 14996 ft | 299 kts | 235° |
| 2026-05-06 19:37 | 36.33749 | -77.89298 | 14508 ft | 296 kts | 235° |
| 2026-05-06 19:37 | 36.32862 | -77.90595 | 14185 ft | 295 kts | 235° |
| 2026-05-06 19:38 | 36.31091 | -77.93188 | 13553 ft | 301 kts | 235° |
| 2026-05-06 19:38 | 36.29753 | -77.95142 | 13059 ft | 298 kts | 234° |
| 2026-05-06 19:38 | 36.28410 | -77.97102 | 12569 ft | 296 kts | 234° |
| 2026-05-06 19:38 | 36.27087 | -77.99031 | 12086 ft | 293 kts | 234° |
| 2026-05-06 19:39 | 36.25776 | -78.00944 | 11605 ft | 291 kts | 234° |
| 2026-05-06 19:39 | 36.24480 | -78.02834 | 11130 ft | 289 kts | 234° |
| 2026-05-06 19:39 | 36.23221 | -78.04768 | 10698 ft | 285 kts | 240° |
| 2026-05-06 19:39 | 36.22355 | -78.06881 | 10425 ft | 268 kts | 248° |
| 2026-05-06 19:40 | 36.21624 | -78.08908 | 10302 ft | 246 kts | 247° |
| 2026-05-06 19:40 | 36.20907 | -78.10834 | 10210 ft | 249 kts | 248° |
| 2026-05-06 19:40 | 36.20239 | -78.12795 | 10004 ft | 249 kts | 249° |
| 2026-05-06 19:40 | 36.19580 | -78.14779 | 9689 ft | 247 kts | 249° |
| 2026-05-06 19:41 | 36.18933 | -78.16703 | 9374 ft | 244 kts | 248° |
| 2026-05-06 19:41 | 36.18283 | -78.18641 | 9052 ft | 244 kts | 248° |
| 2026-05-06 19:41 | 36.17644 | -78.20551 | 8737 ft | 242 kts | 248° |
| 2026-05-06 19:41 | 36.16997 | -78.22475 | 8418 ft | 240 kts | 248° |
| 2026-05-06 19:42 | 36.16360 | -78.24372 | 8105 ft | 239 kts | 248° |
| 2026-05-06 19:42 | 36.15719 | -78.26277 | 7792 ft | 238 kts | 248° |
| 2026-05-06 19:42 | 36.15103 | -78.28140 | 7487 ft | 236 kts | 250° |
| 2026-05-06 19:42 | 36.14702 | -78.30122 | 7179 ft | 234 kts | 257° |
| 2026-05-06 19:43 | 36.14384 | -78.31976 | 6894 ft | 210 kts | 256° |
| 2026-05-06 19:43 | 36.14080 | -78.33672 | 6625 ft | 195 kts | 256° |
| 2026-05-06 19:43 | 36.13792 | -78.35284 | 6378 ft | 194 kts | 256° |
| 2026-05-06 19:43 | 36.13503 | -78.36896 | 6228 ft | 191 kts | 256° |
| 2026-05-06 19:44 | 36.13213 | -78.38512 | 6162 ft | 192 kts | 256° |
| 2026-05-06 19:44 | 36.12921 | -78.40143 | 6092 ft | 193 kts | 256° |
| 2026-05-06 19:44 | 36.12631 | -78.41760 | 6021 ft | 192 kts | 256° |
| 2026-05-06 19:44 | 36.12333 | -78.43361 | 5932 ft | 193 kts | 252° |
| 2026-05-06 19:45 | 36.11624 | -78.44750 | 5940 ft | 195 kts | 227° |
| 2026-05-06 19:45 | 36.10698 | -78.45995 | 5932 ft | 195 kts | 235° |
| 2026-05-06 19:45 | 36.09944 | -78.47383 | 5936 ft | 193 kts | 237° |
| 2026-05-06 19:45 | 36.09201 | -78.48747 | 5942 ft | 193 kts | 237° |
| 2026-05-06 19:46 | 36.08464 | -78.50137 | 5927 ft | 194 kts | 239° |
| 2026-05-06 19:46 | 36.07758 | -78.51577 | 5807 ft | 196 kts | 240° |
| 2026-05-06 19:46 | 36.07085 | -78.53029 | 5608 ft | 195 kts | 241° |
| 2026-05-06 19:46 | 36.06379 | -78.54438 | 5395 ft | 186 kts | 234° |
| 2026-05-06 19:47 | 36.05587 | -78.55669 | 5195 ft | 181 kts | 234° |
| 2026-05-06 19:47 | 36.04807 | -78.56893 | 4990 ft | 181 kts | 230° |
| 2026-05-06 19:47 | 36.03948 | -78.58032 | 4770 ft | 182 kts | 228° |
| 2026-05-06 19:47 | 36.03071 | -78.59146 | 4526 ft | 182 kts | 227° |
| 2026-05-06 19:48 | 36.02171 | -78.60272 | 4281 ft | 182 kts | 227° |
| 2026-05-06 19:48 | 36.01306 | -78.61347 | 4146 ft | 178 kts | 227° |
| 2026-05-06 19:48 | 36.00437 | -78.62427 | 3943 ft | 170 kts | 226° |
| 2026-05-06 19:48 | 35.99614 | -78.63451 | 3735 ft | 168 kts | 226° |
| 2026-05-06 19:49 | 35.98792 | -78.64470 | 3508 ft | 168 kts | 226° |
| 2026-05-06 19:49 | 35.97981 | -78.65481 | 3279 ft | 168 kts | 226° |
| 2026-05-06 19:49 | 35.97155 | -78.66511 | 3046 ft | 168 kts | 225° |
| 2026-05-06 19:49 | 35.96334 | -78.67531 | 2814 ft | 168 kts | 225° |
| 2026-05-06 19:50 | 35.95512 | -78.68547 | 2583 ft | 168 kts | 225° |
| 2026-05-06 19:50 | 35.94680 | -78.69578 | 2350 ft | 169 kts | 225° |
| 2026-05-06 19:50 | 35.93858 | -78.70595 | 2121 ft | 170 kts | 225° |
| 2026-05-06 19:50 | 35.93026 | -78.71624 | 1889 ft | 173 kts | 225° |
| 2026-05-06 19:51 | 35.92160 | -78.72697 | 1651 ft | 165 kts | 225° |
| 2026-05-06 19:51 | 35.91421 | -78.73610 | 1440 ft | 138 kts | 225° |
| 2026-05-06 19:51 | 35.90785 | -78.74395 | 1265 ft | 125 kts | 225° |
| 2026-05-06 19:51 | 35.90175 | -78.75150 | 1103 ft | 124 kts | 225° |
| 2026-05-06 19:52 | 35.89572 | -78.75893 | 929 ft | 124 kts | 225° |
| 2026-05-06 19:52 | 35.88974 | -78.76640 | 737 ft | 121 kts | 225° |
| 2026-05-06 19:52 | 35.88379 | -78.77368 | 591 ft | 123 kts | 225° |
| 2026-05-06 19:52 | 35.87775 | -78.78111 | 455 ft | 119 kts | 225° |
| 2026-05-06 19:53 | 35.87282 | -78.78724 | 444 ft | 71 kts | 225° |
| 2026-05-06 19:53 | 35.87073 | -78.78982 | 444 ft | 21 kts | 225° |
| 2026-05-06 19:53 | 35.87034 | -78.79095 | 444 ft | 11 kts | 306° |
| 2026-05-06 19:53 | 35.87089 | -78.79143 | 444 ft | 9 kts | 2° |
| 2026-05-06 19:54 | 35.87136 | -78.79097 | 444 ft | 8 kts | 46° |
| 2026-05-06 19:54 | 35.87174 | -78.79048 | 444 ft | 7 kts | 46° |
| 2026-05-06 19:54 | 35.87209 | -78.79005 | 444 ft | 6 kts | 42° |
| 2026-05-06 19:54 | 35.87247 | -78.78996 | 444 ft | 5 kts | 331° |
| 2026-05-06 19:55 | 35.87281 | -78.79026 | 444 ft | 6 kts | 329° |
| 2026-05-06 19:55 | 35.87307 | -78.79044 | 444 ft | 2 kts | 330° |
| 2026-05-06 19:55 | 35.87312 | -78.79047 | 444 ft | 0 kts | 329° |